sensor_id;sensor_type;location;lat;lon;timestamp;P1;durP1;ratioP1;P2;durP2;ratioP2
56161;SDS011;42045;52.986;6.014;2023-09-19T00:02:23;17.27;;;3.20;;
56161;SDS011;42045;52.986;6.014;2023-09-19T00:04:48;12.52;;;3.40;;
56161;SDS011;42045;52.986;6.014;2023-09-19T00:07:15;15.52;;;2.95;;
56161;SDS011;42045;52.986;6.014;2023-09-19T00:09:41;13.38;;;2.83;;
56161;SDS011;42045;52.986;6.014;2023-09-19T00:12:09;16.33;;;3.45;;
56161;SDS011;42045;52.986;6.014;2023-09-19T00:14:35;15.35;;;3.20;;
56161;SDS011;42045;52.986;6.014;2023-09-19T00:17:01;11.20;;;3.20;;
56161;SDS011;42045;52.986;6.014;2023-09-19T00:19:33;14.43;;;4.22;;
56161;SDS011;42045;52.986;6.014;2023-09-19T00:21:59;17.05;;;4.05;;
56161;SDS011;42045;52.986;6.014;2023-09-19T00:24:26;13.13;;;3.55;;
56161;SDS011;42045;52.986;6.014;2023-09-19T00:26:53;13.10;;;3.53;;
56161;SDS011;42045;52.986;6.014;2023-09-19T00:29:20;12.50;;;2.90;;
56161;SDS011;42045;52.986;6.014;2023-09-19T00:31:46;8.30;;;2.83;;
56161;SDS011;42045;52.986;6.014;2023-09-19T00:34:11;17.88;;;3.20;;
56161;SDS011;42045;52.986;6.014;2023-09-19T00:36:37;14.98;;;3.25;;
56161;SDS011;42045;52.986;6.014;2023-09-19T00:39:08;12.52;;;3.10;;
56161;SDS011;42045;52.986;6.014;2023-09-19T00:41:35;16.50;;;3.60;;
56161;SDS011;42045;52.986;6.014;2023-09-19T00:44:02;16.17;;;3.75;;
56161;SDS011;42045;52.986;6.014;2023-09-19T00:46:29;10.18;;;2.70;;
56161;SDS011;42045;52.986;6.014;2023-09-19T00:48:55;9.45;;;2.70;;
56161;SDS011;42045;52.986;6.014;2023-09-19T00:51:22;11.80;;;2.97;;
56161;SDS011;42045;52.986;6.014;2023-09-19T00:53:51;9.27;;;2.30;;
56161;SDS011;42045;52.986;6.014;2023-09-19T00:56:18;10.95;;;2.65;;
56161;SDS011;42045;52.986;6.014;2023-09-19T00:58:46;10.73;;;2.72;;
56161;SDS011;42045;52.986;6.014;2023-09-19T01:01:13;7.53;;;2.45;;
56161;SDS011;42045;52.986;6.014;2023-09-19T01:03:40;11.18;;;2.83;;
56161;SDS011;42045;52.986;6.014;2023-09-19T01:06:07;8.65;;;2.30;;
56161;SDS011;42045;52.986;6.014;2023-09-19T01:08:33;15.70;;;3.10;;
56161;SDS011;42045;52.986;6.014;2023-09-19T01:11:02;12.35;;;2.78;;
56161;SDS011;42045;52.986;6.014;2023-09-19T01:16:28;11.13;;;2.85;;
56161;SDS011;42045;52.986;6.014;2023-09-19T01:30:47;8.25;;;2.50;;
56161;SDS011;42045;52.986;6.014;2023-09-19T01:33:23;12.82;;;3.13;;
56161;SDS011;42045;52.986;6.014;2023-09-19T01:35:48;9.40;;;2.72;;
56161;SDS011;42045;52.986;6.014;2023-09-19T01:38:15;9.98;;;2.80;;
56161;SDS011;42045;52.986;6.014;2023-09-19T01:40:42;10.38;;;2.90;;
56161;SDS011;42045;52.986;6.014;2023-09-19T01:45:45;10.57;;;2.85;;
56161;SDS011;42045;52.986;6.014;2023-09-19T01:48:27;8.95;;;2.58;;
56161;SDS011;42045;52.986;6.014;2023-09-19T01:51:11;8.73;;;2.50;;
56161;SDS011;42045;52.986;6.014;2023-09-19T01:53:44;11.70;;;2.78;;
56161;SDS011;42045;52.986;6.014;2023-09-19T01:56:32;13.88;;;2.65;;
56161;SDS011;42045;52.986;6.014;2023-09-19T01:59:07;10.65;;;2.50;;
56161;SDS011;42045;52.986;6.014;2023-09-19T02:01:37;11.18;;;2.72;;
56161;SDS011;42045;52.986;6.014;2023-09-19T02:04:04;15.00;;;3.47;;
56161;SDS011;42045;52.986;6.014;2023-09-19T02:06:30;11.80;;;3.08;;
56161;SDS011;42045;52.986;6.014;2023-09-19T02:08:57;11.10;;;2.42;;
56161;SDS011;42045;52.986;6.014;2023-09-19T02:11:24;7.72;;;2.72;;
56161;SDS011;42045;52.986;6.014;2023-09-19T02:13:50;10.70;;;2.85;;
56161;SDS011;42045;52.986;6.014;2023-09-19T02:16:19;10.88;;;3.90;;
56161;SDS011;42045;52.986;6.014;2023-09-19T02:18:46;10.00;;;2.90;;
56161;SDS011;42045;52.986;6.014;2023-09-19T02:21:15;6.90;;;2.20;;
56161;SDS011;42045;52.986;6.014;2023-09-19T02:23:42;12.02;;;2.70;;
56161;SDS011;42045;52.986;6.014;2023-09-19T02:26:08;11.98;;;2.75;;
56161;SDS011;42045;52.986;6.014;2023-09-19T02:28:34;15.98;;;2.67;;
56161;SDS011;42045;52.986;6.014;2023-09-19T02:31:00;10.10;;;3.03;;
56161;SDS011;42045;52.986;6.014;2023-09-19T02:33:26;11.68;;;2.60;;
56161;SDS011;42045;52.986;6.014;2023-09-19T02:35:56;12.82;;;3.25;;
56161;SDS011;42045;52.986;6.014;2023-09-19T02:38:22;10.15;;;2.78;;
56161;SDS011;42045;52.986;6.014;2023-09-19T02:40:50;9.63;;;2.28;;
56161;SDS011;42045;52.986;6.014;2023-09-19T02:43:16;9.50;;;2.17;;
56161;SDS011;42045;52.986;6.014;2023-09-19T02:45:42;10.25;;;2.55;;
56161;SDS011;42045;52.986;6.014;2023-09-19T02:48:07;14.07;;;2.90;;
56161;SDS011;42045;52.986;6.014;2023-09-19T02:50:33;10.10;;;2.45;;
56161;SDS011;42045;52.986;6.014;2023-09-19T02:52:59;14.05;;;3.15;;
56161;SDS011;42045;52.986;6.014;2023-09-19T02:55:25;13.52;;;3.17;;
56161;SDS011;42045;52.986;6.014;2023-09-19T02:57:52;10.48;;;2.50;;
56161;SDS011;42045;52.986;6.014;2023-09-19T03:00:22;9.05;;;2.63;;
56161;SDS011;42045;52.986;6.014;2023-09-19T03:02:48;10.90;;;3.17;;
56161;SDS011;42045;52.986;6.014;2023-09-19T03:05:15;12.38;;;2.97;;
56161;SDS011;42045;52.986;6.014;2023-09-19T03:07:41;10.82;;;2.40;;
56161;SDS011;42045;52.986;6.014;2023-09-19T03:10:08;13.90;;;3.20;;
56161;SDS011;42045;52.986;6.014;2023-09-19T03:12:34;9.10;;;2.63;;
56161;SDS011;42045;52.986;6.014;2023-09-19T03:15:00;9.10;;;2.50;;
56161;SDS011;42045;52.986;6.014;2023-09-19T03:17:27;9.30;;;2.42;;
56161;SDS011;42045;52.986;6.014;2023-09-19T03:19:52;9.75;;;2.45;;
56161;SDS011;42045;52.986;6.014;2023-09-19T03:22:19;11.35;;;2.35;;
56161;SDS011;42045;52.986;6.014;2023-09-19T03:24:44;13.15;;;3.05;;
56161;SDS011;42045;52.986;6.014;2023-09-19T03:27:11;13.27;;;2.65;;
56161;SDS011;42045;52.986;6.014;2023-09-19T03:29:39;10.25;;;2.75;;
56161;SDS011;42045;52.986;6.014;2023-09-19T03:32:05;13.82;;;3.45;;
56161;SDS011;42045;52.986;6.014;2023-09-19T03:34:30;8.93;;;2.25;;
56161;SDS011;42045;52.986;6.014;2023-09-19T03:36:56;11.30;;;2.70;;
56161;SDS011;42045;52.986;6.014;2023-09-19T03:39:22;9.57;;;2.45;;
56161;SDS011;42045;52.986;6.014;2023-09-19T03:41:47;10.60;;;2.72;;
56161;SDS011;42045;52.986;6.014;2023-09-19T03:44:14;6.30;;;2.00;;
56161;SDS011;42045;52.986;6.014;2023-09-19T03:46:40;12.25;;;3.17;;
56161;SDS011;42045;52.986;6.014;2023-09-19T03:49:05;12.20;;;2.47;;
56161;SDS011;42045;52.986;6.014;2023-09-19T03:51:31;10.23;;;2.50;;
56161;SDS011;42045;52.986;6.014;2023-09-19T03:53:59;15.02;;;3.13;;
56161;SDS011;42045;52.986;6.014;2023-09-19T03:56:24;12.90;;;3.42;;
56161;SDS011;42045;52.986;6.014;2023-09-19T03:58:50;14.75;;;3.03;;
56161;SDS011;42045;52.986;6.014;2023-09-19T04:01:16;9.02;;;2.78;;
56161;SDS011;42045;52.986;6.014;2023-09-19T04:03:43;8.80;;;2.75;;
56161;SDS011;42045;52.986;6.014;2023-09-19T04:06:15;12.85;;;2.40;;
56161;SDS011;42045;52.986;6.014;2023-09-19T04:08:42;9.50;;;2.80;;
56161;SDS011;42045;52.986;6.014;2023-09-19T04:11:09;14.02;;;2.45;;
56161;SDS011;42045;52.986;6.014;2023-09-19T04:13:35;10.95;;;2.75;;
56161;SDS011;42045;52.986;6.014;2023-09-19T04:16:01;11.40;;;2.75;;
56161;SDS011;42045;52.986;6.014;2023-09-19T04:18:29;9.80;;;2.63;;
56161;SDS011;42045;52.986;6.014;2023-09-19T04:20:57;9.50;;;2.92;;
56161;SDS011;42045;52.986;6.014;2023-09-19T04:23:23;12.98;;;3.25;;
56161;SDS011;42045;52.986;6.014;2023-09-19T04:25:49;8.65;;;2.60;;
56161;SDS011;42045;52.986;6.014;2023-09-19T04:28:15;9.93;;;2.40;;
56161;SDS011;42045;52.986;6.014;2023-09-19T04:30:41;11.10;;;2.72;;
56161;SDS011;42045;52.986;6.014;2023-09-19T04:33:06;11.50;;;2.80;;
56161;SDS011;42045;52.986;6.014;2023-09-19T04:35:32;10.32;;;2.60;;
56161;SDS011;42045;52.986;6.014;2023-09-19T04:37:58;11.02;;;2.60;;
56161;SDS011;42045;52.986;6.014;2023-09-19T04:40:24;11.98;;;2.58;;
56161;SDS011;42045;52.986;6.014;2023-09-19T04:42:55;13.80;;;3.30;;
56161;SDS011;42045;52.986;6.014;2023-09-19T04:45:22;10.00;;;2.42;;
56161;SDS011;42045;52.986;6.014;2023-09-19T04:47:48;10.93;;;2.50;;
56161;SDS011;42045;52.986;6.014;2023-09-19T04:50:13;11.70;;;2.72;;
56161;SDS011;42045;52.986;6.014;2023-09-19T04:52:40;12.77;;;3.05;;
56161;SDS011;42045;52.986;6.014;2023-09-19T04:55:07;7.88;;;2.72;;
56161;SDS011;42045;52.986;6.014;2023-09-19T04:57:34;12.90;;;3.00;;
56161;SDS011;42045;52.986;6.014;2023-09-19T05:00:01;12.75;;;3.22;;
56161;SDS011;42045;52.986;6.014;2023-09-19T05:02:31;13.18;;;3.25;;
56161;SDS011;42045;52.986;6.014;2023-09-19T05:04:59;10.52;;;2.80;;
56161;SDS011;42045;52.986;6.014;2023-09-19T05:07:25;15.20;;;3.33;;
56161;SDS011;42045;52.986;6.014;2023-09-19T05:09:51;15.23;;;3.15;;
56161;SDS011;42045;52.986;6.014;2023-09-19T05:12:17;15.02;;;3.92;;
56161;SDS011;42045;52.986;6.014;2023-09-19T05:14:44;13.10;;;3.47;;
56161;SDS011;42045;52.986;6.014;2023-09-19T05:17:10;14.75;;;3.05;;
56161;SDS011;42045;52.986;6.014;2023-09-19T05:19:35;15.48;;;4.65;;
56161;SDS011;42045;52.986;6.014;2023-09-19T05:22:01;12.25;;;3.13;;
56161;SDS011;42045;52.986;6.014;2023-09-19T05:24:29;15.63;;;3.47;;
56161;SDS011;42045;52.986;6.014;2023-09-19T05:26:55;13.55;;;2.83;;
56161;SDS011;42045;52.986;6.014;2023-09-19T05:29:22;16.23;;;2.90;;
56161;SDS011;42045;52.986;6.014;2023-09-19T05:31:48;20.40;;;3.63;;
56161;SDS011;42045;52.986;6.014;2023-09-19T05:34:14;8.90;;;2.42;;
56161;SDS011;42045;52.986;6.014;2023-09-19T05:36:40;12.95;;;3.35;;
56161;SDS011;42045;52.986;6.014;2023-09-19T05:39:06;10.82;;;2.70;;
56161;SDS011;42045;52.986;6.014;2023-09-19T05:41:34;14.75;;;2.97;;
56161;SDS011;42045;52.986;6.014;2023-09-19T05:44:02;13.57;;;3.38;;
56161;SDS011;42045;52.986;6.014;2023-09-19T05:46:28;12.80;;;2.65;;
56161;SDS011;42045;52.986;6.014;2023-09-19T05:48:55;9.25;;;2.72;;
56161;SDS011;42045;52.986;6.014;2023-09-19T05:51:23;8.63;;;2.42;;
56161;SDS011;42045;52.986;6.014;2023-09-19T05:53:50;15.48;;;3.17;;
56161;SDS011;42045;52.986;6.014;2023-09-19T05:56:16;13.05;;;3.67;;
56161;SDS011;42045;52.986;6.014;2023-09-19T05:58:44;14.85;;;3.75;;
56161;SDS011;42045;52.986;6.014;2023-09-19T06:01:09;12.77;;;3.10;;
56161;SDS011;42045;52.986;6.014;2023-09-19T06:03:35;12.63;;;2.85;;
56161;SDS011;42045;52.986;6.014;2023-09-19T06:06:01;18.33;;;3.97;;
56161;SDS011;42045;52.986;6.014;2023-09-19T06:08:27;11.55;;;3.30;;
56161;SDS011;42045;52.986;6.014;2023-09-19T06:10:53;11.30;;;3.65;;
56161;SDS011;42045;52.986;6.014;2023-09-19T06:13:19;9.27;;;2.90;;
56161;SDS011;42045;52.986;6.014;2023-09-19T06:15:45;8.50;;;3.13;;
56161;SDS011;42045;52.986;6.014;2023-09-19T06:18:14;12.50;;;3.00;;
56161;SDS011;42045;52.986;6.014;2023-09-19T06:20:45;14.88;;;3.65;;
56161;SDS011;42045;52.986;6.014;2023-09-19T06:23:16;9.95;;;2.42;;
56161;SDS011;42045;52.986;6.014;2023-09-19T06:25:42;11.25;;;3.28;;
56161;SDS011;42045;52.986;6.014;2023-09-19T06:28:08;13.10;;;3.83;;
56161;SDS011;42045;52.986;6.014;2023-09-19T06:30:38;13.10;;;2.75;;
56161;SDS011;42045;52.986;6.014;2023-09-19T06:33:05;12.05;;;3.22;;
56161;SDS011;42045;52.986;6.014;2023-09-19T06:35:32;10.75;;;2.53;;
56161;SDS011;42045;52.986;6.014;2023-09-19T06:38:01;11.20;;;3.10;;
56161;SDS011;42045;52.986;6.014;2023-09-19T06:40:28;10.07;;;3.08;;
56161;SDS011;42045;52.986;6.014;2023-09-19T06:42:56;10.23;;;2.65;;
56161;SDS011;42045;52.986;6.014;2023-09-19T06:45:22;9.88;;;2.72;;
56161;SDS011;42045;52.986;6.014;2023-09-19T06:47:51;12.48;;;3.25;;
56161;SDS011;42045;52.986;6.014;2023-09-19T06:50:22;9.10;;;2.97;;
56161;SDS011;42045;52.986;6.014;2023-09-19T06:52:52;16.23;;;3.63;;
56161;SDS011;42045;52.986;6.014;2023-09-19T06:55:19;10.00;;;3.42;;
56161;SDS011;42045;52.986;6.014;2023-09-19T06:57:48;9.93;;;3.88;;
56161;SDS011;42045;52.986;6.014;2023-09-19T07:00:14;10.75;;;3.00;;
56161;SDS011;42045;52.986;6.014;2023-09-19T07:02:41;12.63;;;3.70;;
56161;SDS011;42045;52.986;6.014;2023-09-19T07:05:07;12.38;;;3.25;;
56161;SDS011;42045;52.986;6.014;2023-09-19T07:07:33;9.85;;;3.40;;
56161;SDS011;42045;52.986;6.014;2023-09-19T07:10:02;10.30;;;3.30;;
56161;SDS011;42045;52.986;6.014;2023-09-19T07:12:31;12.27;;;3.28;;
56161;SDS011;42045;52.986;6.014;2023-09-19T07:14:58;13.45;;;3.00;;
56161;SDS011;42045;52.986;6.014;2023-09-19T07:17:23;10.82;;;3.40;;
56161;SDS011;42045;52.986;6.014;2023-09-19T07:19:49;11.73;;;3.30;;
56161;SDS011;42045;52.986;6.014;2023-09-19T07:22:15;12.55;;;3.17;;
56161;SDS011;42045;52.986;6.014;2023-09-19T07:24:41;15.52;;;3.88;;
56161;SDS011;42045;52.986;6.014;2023-09-19T07:27:07;9.40;;;2.70;;
56161;SDS011;42045;52.986;6.014;2023-09-19T07:29:33;10.95;;;3.17;;
56161;SDS011;42045;52.986;6.014;2023-09-19T07:31:59;12.88;;;3.55;;
56161;SDS011;42045;52.986;6.014;2023-09-19T07:34:25;11.10;;;3.83;;
56161;SDS011;42045;52.986;6.014;2023-09-19T07:36:51;10.30;;;3.22;;
56161;SDS011;42045;52.986;6.014;2023-09-19T07:39:16;12.25;;;3.28;;
56161;SDS011;42045;52.986;6.014;2023-09-19T07:41:42;13.65;;;3.88;;
56161;SDS011;42045;52.986;6.014;2023-09-19T07:44:08;12.50;;;3.60;;
56161;SDS011;42045;52.986;6.014;2023-09-19T07:46:35;10.15;;;3.17;;
56161;SDS011;42045;52.986;6.014;2023-09-19T07:49:01;13.93;;;4.15;;
56161;SDS011;42045;52.986;6.014;2023-09-19T07:51:26;9.68;;;3.42;;
56161;SDS011;42045;52.986;6.014;2023-09-19T07:53:52;16.42;;;4.15;;
56161;SDS011;42045;52.986;6.014;2023-09-19T07:56:20;12.05;;;3.25;;
56161;SDS011;42045;52.986;6.014;2023-09-19T07:58:48;13.23;;;3.80;;
56161;SDS011;42045;52.986;6.014;2023-09-19T08:01:14;15.93;;;3.95;;
56161;SDS011;42045;52.986;6.014;2023-09-19T08:03:41;13.77;;;3.42;;
56161;SDS011;42045;52.986;6.014;2023-09-19T08:06:08;11.20;;;3.38;;
56161;SDS011;42045;52.986;6.014;2023-09-19T08:08:34;14.27;;;3.15;;
56161;SDS011;42045;52.986;6.014;2023-09-19T08:11:05;10.90;;;2.97;;
56161;SDS011;42045;52.986;6.014;2023-09-19T08:13:39;21.70;;;4.28;;
56161;SDS011;42045;52.986;6.014;2023-09-19T08:16:13;12.68;;;3.53;;
56161;SDS011;42045;52.986;6.014;2023-09-19T08:18:46;9.95;;;3.05;;
56161;SDS011;42045;52.986;6.014;2023-09-19T08:21:13;12.57;;;3.90;;
56161;SDS011;42045;52.986;6.014;2023-09-19T08:23:40;12.07;;;3.22;;
56161;SDS011;42045;52.986;6.014;2023-09-19T08:26:07;14.05;;;3.95;;
56161;SDS011;42045;52.986;6.014;2023-09-19T08:28:36;14.82;;;3.55;;
56161;SDS011;42045;52.986;6.014;2023-09-19T08:31:05;9.35;;;3.30;;
56161;SDS011;42045;52.986;6.014;2023-09-19T08:33:33;14.77;;;3.83;;
56161;SDS011;42045;52.986;6.014;2023-09-19T08:36:01;15.82;;;4.38;;
56161;SDS011;42045;52.986;6.014;2023-09-19T08:38:30;10.05;;;3.00;;
56161;SDS011;42045;52.986;6.014;2023-09-19T08:40:58;13.98;;;4.30;;
56161;SDS011;42045;52.986;6.014;2023-09-19T08:43:25;13.23;;;3.65;;
56161;SDS011;42045;52.986;6.014;2023-09-19T08:45:53;17.90;;;4.68;;
56161;SDS011;42045;52.986;6.014;2023-09-19T08:48:28;11.27;;;3.35;;
56161;SDS011;42045;52.986;6.014;2023-09-19T08:51:03;14.45;;;4.32;;
56161;SDS011;42045;52.986;6.014;2023-09-19T08:56:19;17.67;;;5.40;;
56161;SDS011;42045;52.986;6.014;2023-09-19T08:58:50;15.02;;;4.15;;
56161;SDS011;42045;52.986;6.014;2023-09-19T09:01:20;15.77;;;4.32;;
56161;SDS011;42045;52.986;6.014;2023-09-19T09:03:53;17.38;;;4.95;;
56161;SDS011;42045;52.986;6.014;2023-09-19T09:06:23;15.88;;;3.63;;
56161;SDS011;42045;52.986;6.014;2023-09-19T09:08:50;11.75;;;3.78;;
56161;SDS011;42045;52.986;6.014;2023-09-19T09:11:17;17.52;;;4.57;;
56161;SDS011;42045;52.986;6.014;2023-09-19T09:13:44;13.90;;;3.67;;
56161;SDS011;42045;52.986;6.014;2023-09-19T09:16:10;17.13;;;4.55;;
56161;SDS011;42045;52.986;6.014;2023-09-19T09:18:37;15.02;;;4.25;;
56161;SDS011;42045;52.986;6.014;2023-09-19T09:21:03;14.48;;;4.75;;
56161;SDS011;42045;52.986;6.014;2023-09-19T09:23:29;15.13;;;4.70;;
56161;SDS011;42045;52.986;6.014;2023-09-19T09:25:57;14.43;;;3.83;;
56161;SDS011;42045;52.986;6.014;2023-09-19T09:28:26;15.27;;;4.30;;
56161;SDS011;42045;52.986;6.014;2023-09-19T09:30:54;14.13;;;4.60;;
56161;SDS011;42045;52.986;6.014;2023-09-19T09:33:20;14.25;;;4.38;;
56161;SDS011;42045;52.986;6.014;2023-09-19T09:38:17;19.65;;;5.63;;
56161;SDS011;42045;52.986;6.014;2023-09-19T09:40:47;14.52;;;4.18;;
56161;SDS011;42045;52.986;6.014;2023-09-19T09:43:26;16.23;;;4.65;;
56161;SDS011;42045;52.986;6.014;2023-09-19T09:46:06;17.70;;;4.97;;
56161;SDS011;42045;52.986;6.014;2023-09-19T09:57:45;15.05;;;3.95;;
56161;SDS011;42045;52.986;6.014;2023-09-19T10:00:11;16.45;;;4.50;;
56161;SDS011;42045;52.986;6.014;2023-09-19T10:02:37;14.30;;;3.97;;
56161;SDS011;42045;52.986;6.014;2023-09-19T10:05:14;16.48;;;5.00;;
56161;SDS011;42045;52.986;6.014;2023-09-19T10:07:53;16.15;;;4.40;;
56161;SDS011;42045;52.986;6.014;2023-09-19T10:13:12;14.55;;;4.30;;
56161;SDS011;42045;52.986;6.014;2023-09-19T10:15:43;11.40;;;3.78;;
56161;SDS011;42045;52.986;6.014;2023-09-19T10:20:47;15.82;;;4.97;;
56161;SDS011;42045;52.986;6.014;2023-09-19T10:23:14;14.07;;;4.57;;
56161;SDS011;42045;52.986;6.014;2023-09-19T10:28:14;12.30;;;4.10;;
56161;SDS011;42045;52.986;6.014;2023-09-19T10:30:46;14.98;;;5.20;;
56161;SDS011;42045;52.986;6.014;2023-09-19T10:33:14;16.83;;;5.55;;
56161;SDS011;42045;52.986;6.014;2023-09-19T10:35:54;16.08;;;4.65;;
56161;SDS011;42045;52.986;6.014;2023-09-19T10:38:25;16.08;;;5.13;;
56161;SDS011;42045;52.986;6.014;2023-09-19T10:40:53;17.20;;;4.90;;
56161;SDS011;42045;52.986;6.014;2023-09-19T10:43:26;15.77;;;4.70;;
56161;SDS011;42045;52.986;6.014;2023-09-19T10:45:56;13.77;;;4.40;;
56161;SDS011;42045;52.986;6.014;2023-09-19T10:48:32;12.55;;;4.63;;
56161;SDS011;42045;52.986;6.014;2023-09-19T10:51:06;13.63;;;4.18;;
56161;SDS011;42045;52.986;6.014;2023-09-19T10:53:51;15.00;;;4.53;;
56161;SDS011;42045;52.986;6.014;2023-09-19T10:56:23;20.50;;;4.47;;
56161;SDS011;42045;52.986;6.014;2023-09-19T10:59:08;11.75;;;4.15;;
56161;SDS011;42045;52.986;6.014;2023-09-19T11:01:45;14.57;;;5.07;;
56161;SDS011;42045;52.986;6.014;2023-09-19T11:07:00;15.32;;;4.07;;
56161;SDS011;42045;52.986;6.014;2023-09-19T11:12:11;19.05;;;4.80;;
56161;SDS011;42045;52.986;6.014;2023-09-19T11:14:39;11.82;;;3.83;;
56161;SDS011;42045;52.986;6.014;2023-09-19T11:30:36;15.45;;;3.80;;
56161;SDS011;42045;52.986;6.014;2023-09-19T11:46:32;14.43;;;5.10;;
56161;SDS011;42045;52.986;6.014;2023-09-19T11:49:05;15.88;;;4.18;;
56161;SDS011;42045;52.986;6.014;2023-09-19T11:51:40;15.68;;;4.00;;
56161;SDS011;42045;52.986;6.014;2023-09-19T11:54:11;13.85;;;4.22;;
56161;SDS011;42045;52.986;6.014;2023-09-19T11:56:43;11.98;;;3.35;;
56161;SDS011;42045;52.986;6.014;2023-09-19T12:01:57;11.50;;;3.22;;
56161;SDS011;42045;52.986;6.014;2023-09-19T12:04:44;14.85;;;3.72;;
56161;SDS011;42045;52.986;6.014;2023-09-19T12:07:15;17.70;;;3.75;;
56161;SDS011;42045;52.986;6.014;2023-09-19T12:09:41;11.07;;;3.60;;
56161;SDS011;42045;52.986;6.014;2023-09-19T12:15:06;10.25;;;3.17;;
56161;SDS011;42045;52.986;6.014;2023-09-19T12:17:36;8.65;;;3.00;;
56161;SDS011;42045;52.986;6.014;2023-09-19T12:20:04;12.23;;;4.03;;
56161;SDS011;42045;52.986;6.014;2023-09-19T12:22:44;9.45;;;3.17;;
56161;SDS011;42045;52.986;6.014;2023-09-19T12:25:11;12.60;;;3.60;;
56161;SDS011;42045;52.986;6.014;2023-09-19T12:27:47;11.90;;;3.00;;
56161;SDS011;42045;52.986;6.014;2023-09-19T12:30:27;8.80;;;2.53;;
56161;SDS011;42045;52.986;6.014;2023-09-19T12:32:53;11.80;;;3.38;;
56161;SDS011;42045;52.986;6.014;2023-09-19T12:35:30;10.15;;;3.80;;
56161;SDS011;42045;52.986;6.014;2023-09-19T12:38:00;11.27;;;3.45;;
56161;SDS011;42045;52.986;6.014;2023-09-19T12:40:26;7.63;;;2.88;;
56161;SDS011;42045;52.986;6.014;2023-09-19T12:42:54;8.23;;;2.63;;
56161;SDS011;42045;52.986;6.014;2023-09-19T12:45:20;10.35;;;4.07;;
56161;SDS011;42045;52.986;6.014;2023-09-19T12:51:06;14.80;;;2.72;;
56161;SDS011;42045;52.986;6.014;2023-09-19T12:56:07;13.68;;;2.70;;
56161;SDS011;42045;52.986;6.014;2023-09-19T12:58:35;8.18;;;2.38;;
56161;SDS011;42045;52.986;6.014;2023-09-19T13:01:20;10.52;;;2.45;;
56161;SDS011;42045;52.986;6.014;2023-09-19T13:06:51;8.57;;;2.70;;
56161;SDS011;42045;52.986;6.014;2023-09-19T13:09:18;6.57;;;2.40;;
56161;SDS011;42045;52.986;6.014;2023-09-19T13:11:49;11.57;;;2.83;;
56161;SDS011;42045;52.986;6.014;2023-09-19T13:19:36;9.80;;;2.45;;
56161;SDS011;42045;52.986;6.014;2023-09-19T13:22:35;10.73;;;2.80;;
56161;SDS011;42045;52.986;6.014;2023-09-19T13:25:08;8.75;;;2.53;;
56161;SDS011;42045;52.986;6.014;2023-09-19T13:27:52;10.93;;;2.75;;
56161;SDS011;42045;52.986;6.014;2023-09-19T13:30:21;10.50;;;2.67;;
56161;SDS011;42045;52.986;6.014;2023-09-19T13:32:50;9.85;;;2.55;;
56161;SDS011;42045;52.986;6.014;2023-09-19T13:35:16;6.80;;;2.47;;
56161;SDS011;42045;52.986;6.014;2023-09-19T13:37:42;9.98;;;2.50;;
56161;SDS011;42045;52.986;6.014;2023-09-19T13:40:13;7.30;;;2.35;;
56161;SDS011;42045;52.986;6.014;2023-09-19T13:42:40;5.28;;;1.85;;
56161;SDS011;42045;52.986;6.014;2023-09-19T13:45:07;12.25;;;2.30;;
56161;SDS011;42045;52.986;6.014;2023-09-19T13:47:36;7.47;;;2.42;;
56161;SDS011;42045;52.986;6.014;2023-09-19T13:50:03;12.70;;;3.05;;
56161;SDS011;42045;52.986;6.014;2023-09-19T13:52:30;10.32;;;2.90;;
56161;SDS011;42045;52.986;6.014;2023-09-19T13:54:57;7.38;;;2.50;;
56161;SDS011;42045;52.986;6.014;2023-09-19T13:57:23;6.28;;;2.60;;
56161;SDS011;42045;52.986;6.014;2023-09-19T13:59:49;7.65;;;2.20;;
56161;SDS011;42045;52.986;6.014;2023-09-19T14:02:16;7.47;;;2.85;;
56161;SDS011;42045;52.986;6.014;2023-09-19T14:04:43;8.00;;;2.42;;
56161;SDS011;42045;52.986;6.014;2023-09-19T14:07:10;13.35;;;2.97;;
56161;SDS011;42045;52.986;6.014;2023-09-19T14:09:36;8.18;;;2.72;;
56161;SDS011;42045;52.986;6.014;2023-09-19T14:12:03;7.82;;;2.50;;
56161;SDS011;42045;52.986;6.014;2023-09-19T14:14:28;10.05;;;2.85;;
56161;SDS011;42045;52.986;6.014;2023-09-19T14:16:54;7.50;;;3.15;;
56161;SDS011;42045;52.986;6.014;2023-09-19T14:19:20;9.73;;;3.40;;
56161;SDS011;42045;52.986;6.014;2023-09-19T14:21:46;8.88;;;3.03;;
56161;SDS011;42045;52.986;6.014;2023-09-19T14:24:16;7.35;;;2.83;;
56161;SDS011;42045;52.986;6.014;2023-09-19T14:26:43;7.80;;;2.90;;
56161;SDS011;42045;52.986;6.014;2023-09-19T14:29:10;13.00;;;3.38;;
56161;SDS011;42045;52.986;6.014;2023-09-19T14:31:37;11.00;;;2.83;;
56161;SDS011;42045;52.986;6.014;2023-09-19T14:34:05;7.10;;;2.67;;
56161;SDS011;42045;52.986;6.014;2023-09-19T14:36:30;9.85;;;2.63;;
56161;SDS011;42045;52.986;6.014;2023-09-19T14:38:57;9.50;;;2.65;;
56161;SDS011;42045;52.986;6.014;2023-09-19T14:41:23;8.35;;;2.90;;
56161;SDS011;42045;52.986;6.014;2023-09-19T14:43:51;8.18;;;2.53;;
56161;SDS011;42045;52.986;6.014;2023-09-19T14:46:17;7.53;;;2.80;;
56161;SDS011;42045;52.986;6.014;2023-09-19T14:48:43;7.50;;;2.30;;
56161;SDS011;42045;52.986;6.014;2023-09-19T14:51:12;8.55;;;2.63;;
56161;SDS011;42045;52.986;6.014;2023-09-19T14:53:38;9.43;;;2.90;;
56161;SDS011;42045;52.986;6.014;2023-09-19T14:56:05;9.57;;;2.85;;
56161;SDS011;42045;52.986;6.014;2023-09-19T14:58:32;8.45;;;2.63;;
56161;SDS011;42045;52.986;6.014;2023-09-19T15:01:03;6.75;;;2.40;;
56161;SDS011;42045;52.986;6.014;2023-09-19T15:03:29;8.43;;;2.42;;
56161;SDS011;42045;52.986;6.014;2023-09-19T15:06:13;8.43;;;2.78;;
56161;SDS011;42045;52.986;6.014;2023-09-19T15:08:45;7.25;;;2.75;;
56161;SDS011;42045;52.986;6.014;2023-09-19T15:11:18;7.10;;;2.45;;
56161;SDS011;42045;52.986;6.014;2023-09-19T15:13:45;5.97;;;2.70;;
56161;SDS011;42045;52.986;6.014;2023-09-19T15:16:11;10.82;;;2.50;;
56161;SDS011;42045;52.986;6.014;2023-09-19T15:18:38;9.45;;;2.83;;
56161;SDS011;42045;52.986;6.014;2023-09-19T15:21:08;10.50;;;3.10;;
56161;SDS011;42045;52.986;6.014;2023-09-19T15:23:36;8.13;;;2.95;;
56161;SDS011;42045;52.986;6.014;2023-09-19T15:26:06;7.82;;;3.08;;
56161;SDS011;42045;52.986;6.014;2023-09-19T15:28:33;6.80;;;3.08;;
56161;SDS011;42045;52.986;6.014;2023-09-19T15:31:06;9.88;;;3.03;;
56161;SDS011;42045;52.986;6.014;2023-09-19T15:33:33;8.00;;;3.00;;
56161;SDS011;42045;52.986;6.014;2023-09-19T15:36:09;11.10;;;2.85;;
56161;SDS011;42045;52.986;6.014;2023-09-19T15:38:58;8.85;;;2.92;;
56161;SDS011;42045;52.986;6.014;2023-09-19T15:43:59;7.85;;;3.03;;
56161;SDS011;42045;52.986;6.014;2023-09-19T15:46:26;8.98;;;3.38;;
56161;SDS011;42045;52.986;6.014;2023-09-19T15:48:54;9.60;;;3.25;;
56161;SDS011;42045;52.986;6.014;2023-09-19T15:51:20;7.38;;;2.92;;
56161;SDS011;42045;52.986;6.014;2023-09-19T15:53:50;7.03;;;4.05;;
56161;SDS011;42045;52.986;6.014;2023-09-19T15:56:18;10.15;;;3.28;;
56161;SDS011;42045;52.986;6.014;2023-09-19T15:58:48;8.85;;;3.60;;
56161;SDS011;42045;52.986;6.014;2023-09-19T16:01:15;9.18;;;3.50;;
56161;SDS011;42045;52.986;6.014;2023-09-19T16:03:48;11.45;;;5.13;;
56161;SDS011;42045;52.986;6.014;2023-09-19T16:06:17;9.40;;;4.03;;
56161;SDS011;42045;52.986;6.014;2023-09-19T16:08:44;9.90;;;3.72;;
56161;SDS011;42045;52.986;6.014;2023-09-19T16:11:12;11.05;;;3.80;;
56161;SDS011;42045;52.986;6.014;2023-09-19T16:13:38;7.88;;;3.40;;
56161;SDS011;42045;52.986;6.014;2023-09-19T16:16:06;12.10;;;3.63;;
56161;SDS011;42045;52.986;6.014;2023-09-19T16:18:33;9.55;;;4.22;;
56161;SDS011;42045;52.986;6.014;2023-09-19T16:21:02;10.40;;;3.83;;